Time;durP1;ratioP1;P1;durP2;ratioP2;P2;SDS_P1;SDS_P2;PMS_P1;PMS_P2;Temp;Humidity;BMP_temperature;BMP_pressure;BME280_temperature;BME280_humidity;BME280_pressure;Samples;Min_cycle;Max_cycle;Signal;HPM_P1;HPM_P2
2022/05/25 00:00:43;;;;;;;10.00;9.10;;;;;;;24.06;45.74;94913.78;6233965;28;102800;-62
2022/05/25 00:03:46;;;;;;;11.90;10.80;;;;;;;24.08;45.51;94909.66;6218048;28;102815;-64
2022/05/25 00:06:49;;;;;;;10.60;9.70;;;;;;;24.11;45.30;94910.91;6226247;28;102763;-64
2022/05/25 00:09:53;;;;;;;10.67;9.67;;;;;;;24.08;45.74;94914.22;6214210;28;102797;-63
2022/05/25 00:12:58;;;;;;;10.10;9.30;;;;;;;24.08;45.82;94904.31;6211066;28;102775;-64
2022/05/25 00:16:01;;;;;;;10.93;10.13;;;;;;;24.11;45.35;94906.34;6237051;28;103664;-64
2022/05/25 00:22:26;;;;;;;12.13;11.13;;;;;;;24.14;45.41;94900.34;6237193;28;104823;-63
2022/05/25 00:25:33;;;;;;;11.97;10.93;;;;;;;24.15;45.39;94901.13;6228430;28;103515;-64
2022/05/25 00:28:37;;;;;;;10.93;10.13;;;;;;;24.17;45.56;94909.63;6235770;28;102780;-64
2022/05/25 00:31:41;;;;;;;12.03;11.03;;;;;;;24.11;45.55;94908.22;6215588;28;102783;-63
2022/05/25 00:34:45;;;;;;;11.73;10.83;;;;;;;24.10;45.58;94915.47;6236150;28;102993;-63
2022/05/25 00:37:48;;;;;;;11.80;10.90;;;;;;;24.07;45.40;94918.78;6230302;28;102821;-64
2022/05/25 00:40:52;;;;;;;11.47;10.27;;;;;;;24.07;45.70;94912.66;6237484;28;103037;-63
2022/05/25 00:43:56;;;;;;;12.70;11.53;;;;;;;24.07;45.54;94913.44;6221755;28;103183;-64
2022/05/25 00:47:00;;;;;;;12.27;11.13;;;;;;;24.08;45.84;94912.34;6223376;28;104358;-64
2022/05/25 00:50:04;;;;;;;11.93;11.03;;;;;;;24.05;46.05;94906.84;6228735;28;102792;-64
2022/05/25 00:53:08;;;;;;;10.40;9.67;;;;;;;24.02;46.04;94910.16;6237141;28;102713;-64
2022/05/25 00:56:15;;;;;;;10.60;9.80;;;;;;;24.02;45.75;94910.16;6217472;28;103193;-65
2022/05/25 00:59:26;;;;;;;10.43;9.53;;;;;;;23.96;45.95;94922.09;6223167;28;104438;-64
2022/05/25 01:02:30;;;;;;;10.23;9.40;;;;;;;23.95;45.93;94915.19;6223135;28;103013;-64
2022/05/25 01:05:39;;;;;;;10.37;9.47;;;;;;;23.92;46.00;94916.63;6233589;28;102734;-64
2022/05/25 01:08:52;;;;;;;10.13;9.33;;;;;;;23.96;46.03;94916.75;6237259;28;102739;-64
2022/05/25 01:12:08;;;;;;;11.60;10.20;;;;;;;23.96;45.49;94925.56;6224005;28;104709;-64
2022/05/25 01:15:19;;;;;;;11.67;10.50;;;;;;;23.93;46.34;94920.84;6235651;28;103062;-64
2022/05/25 01:18:29;;;;;;;9.90;8.70;;;;;;;23.92;45.83;94921.19;6234721;28;103199;-64
2022/05/25 01:21:45;;;;;;;10.70;9.70;;;;;;;23.95;45.83;94932.00;6223720;27;103381;-64
2022/05/25 01:25:00;;;;;;;9.93;9.23;;;;;;;23.95;46.02;94925.88;6234640;28;102830;-60
2022/05/25 01:28:14;;;;;;;9.43;8.63;;;;;;;23.89;45.92;94934.09;6231387;28;102802;-61
2022/05/25 01:31:24;;;;;;;9.20;8.47;;;;;;;23.80;46.11;94932.53;6233183;28;102922;-60
2022/05/25 01:34:40;;;;;;;9.03;8.13;;;;;;;23.58;46.42;94933.53;6225641;27;103322;-60
2022/05/25 01:37:55;;;;;;;8.73;8.10;;;;;;;23.64;46.46;94937.59;6233855;28;102765;-61
2022/05/25 01:41:03;;;;;;;9.57;8.87;;;;;;;23.68;46.45;94935.06;6234333;28;102744;-60
2022/05/25 01:44:10;;;;;;;10.17;9.17;;;;;;;23.69;46.02;94934.78;6226238;28;103938;-60
2022/05/25 01:47:15;;;;;;;9.17;8.40;;;;;;;23.63;46.48;94933.34;6235445;28;102727;-61
2022/05/25 01:50:23;;;;;;;8.40;7.60;;;;;;;23.68;46.34;94929.72;6234300;28;102770;-61
2022/05/25 01:53:30;;;;;;;8.80;7.90;;;;;;;23.60;46.61;94937.47;6233009;28;103691;-61
2022/05/25 01:56:36;;;;;;;9.10;8.30;;;;;;;23.64;46.24;94939.47;6224026;28;103133;-61
2022/05/25 01:59:39;;;;;;;8.20;7.50;;;;;;;23.52;46.71;94940.13;6232667;28;102743;-61
2022/05/25 02:06:37;;;;;;;8.83;8.03;;;;;;;23.67;46.30;94949.53;6228456;28;102824;-60
2022/05/25 02:10:04;;;;;;;8.47;7.77;;;;;;;23.71;46.00;94956.63;6235186;28;102747;-60
2022/05/25 02:13:28;;;;;;;8.00;7.40;;;;;;;23.65;45.76;94946.41;6222349;28;102759;-60
2022/05/25 02:16:41;;;;;;;7.80;7.10;;;;;;;23.66;45.93;94946.06;6234497;28;103051;-60
2022/05/25 02:19:51;;;;;;;7.90;7.20;;;;;;;23.73;45.90;94956.28;6225027;28;102731;-60
2022/05/25 02:23:01;;;;;;;8.20;7.40;;;;;;;23.74;45.78;94955.97;6232173;28;103204;-61
2022/05/25 02:26:10;;;;;;;8.13;7.43;;;;;;;23.71;45.31;94956.63;6235173;28;102690;-60
2022/05/25 02:29:21;;;;;;;8.00;7.30;;;;;;;23.68;45.70;94959.91;6211531;28;102736;-61
2022/05/25 02:32:32;;;;;;;8.37;7.67;;;;;;;23.71;45.33;94975.31;6215628;28;102718;-61
2022/05/25 02:35:37;;;;;;;7.80;7.10;;;;;;;23.64;45.79;94976.88;6218378;28;102675;-61
2022/05/25 02:38:43;;;;;;;9.53;7.40;;;;;;;23.64;45.63;94977.66;6234204;28;102834;-61
2022/05/25 02:41:50;;;;;;;7.97;7.30;;;;;;;23.65;45.96;94984.59;6219928;28;103190;-61
2022/05/25 02:44:53;;;;;;;8.27;7.50;;;;;;;23.64;45.77;94993.69;6218557;28;104392;-60
2022/05/25 02:47:56;;;;;;;8.77;7.87;;;;;;;23.59;45.66;94989.31;6229282;28;102807;-64
2022/05/25 02:51:01;;;;;;;9.20;8.33;;;;;;;23.63;45.95;94997.47;6233402;28;102680;-62
2022/05/25 02:54:04;;;;;;;8.60;7.90;;;;;;;23.41;46.42;94995.78;6217554;28;103478;-61
2022/05/25 02:57:08;;;;;;;8.13;7.43;;;;;;;23.49;45.83;95000.31;6214962;28;102748;-60
2022/05/25 03:00:13;;;;;;;8.60;7.43;;;;;;;23.63;45.71;95000.16;6210057;28;102685;-60
2022/05/25 03:03:17;;;;;;;8.37;7.67;;;;;;;23.75;44.97;95002.97;6204659;28;102917;-60
2022/05/25 03:06:21;;;;;;;8.47;7.63;;;;;;;23.83;44.95;95004.03;6211997;28;102883;-60
2022/05/25 03:09:24;;;;;;;7.63;7.03;;;;;;;23.83;44.90;94996.03;6217994;28;103493;-60
2022/05/25 03:12:28;;;;;;;9.40;7.30;;;;;;;23.69;45.40;95004.25;6234788;28;102796;-60
2022/05/25 03:15:31;;;;;;;8.50;7.80;;;;;;;23.63;45.42;95018.84;6221634;28;103023;-59
2022/05/25 03:18:35;;;;;;;8.87;7.97;;;;;;;23.42;46.15;95012.59;6234474;28;102719;-61
2022/05/25 03:21:40;;;;;;;11.70;10.60;;;;;;;23.40;46.12;95010.22;6220021;27;102807;-60
2022/05/25 03:24:43;;;;;;;11.60;10.50;;;;;;;23.45;45.64;95023.41;6234895;28;102653;-58
2022/05/25 03:27:46;;;;;;;10.00;8.73;;;;;;;23.41;45.81;95022.47;6227669;27;103374;-59
2022/05/25 03:30:49;;;;;;;11.27;8.07;;;;;;;23.32;46.12;95023.56;6237888;28;102765;-59
2022/05/25 03:33:52;;;;;;;10.53;8.77;;;;;;;23.36;48.00;95027.97;6236337;28;102866;-59
2022/05/25 03:36:57;;;;;;;11.20;8.40;;;;;;;23.59;47.59;95026.72;6231412;28;102818;-60
2022/05/25 03:40:00;;;;;;;9.50;8.50;;;;;;;23.72;48.71;95038.34;6225318;28;104356;-59
2022/05/25 03:43:05;;;;;;;11.23;10.30;;;;;;;23.73;47.24;95039.13;6235860;28;103236;-59
2022/05/25 03:46:08;;;;;;;10.27;9.27;;;;;;;23.89;48.53;95045.56;6235789;28;102728;-59
2022/05/25 03:49:11;;;;;;;10.57;9.73;;;;;;;23.91;46.64;95040.66;6227827;27;102844;-59
2022/05/25 03:52:20;;;;;;;9.60;8.70;;;;;;;24.01;47.91;95043.03;6237719;28;103019;-59
2022/05/25 03:55:24;;;;;;;9.93;9.00;;;;;;;24.07;46.12;95051.69;6212903;28;103376;-58
2022/05/25 03:58:27;;;;;;;9.80;9.00;;;;;;;24.05;47.45;95059.25;6218865;28;102821;-59
2022/05/25 04:01:32;;;;;;;10.60;9.60;;;;;;;24.02;46.33;95059.84;6210479;28;104367;-59
2022/05/25 04:04:35;;;;;;;11.67;10.77;;;;;;;23.68;47.42;95056.09;6213392;28;103257;-61
2022/05/25 04:07:42;;;;;;;11.10;10.10;;;;;;;23.28;47.89;95066.09;6220550;28;102821;-59
2022/05/25 04:10:45;;;;;;;11.40;10.33;;;;;;;23.14;47.55;95068.91;6226854;27;104301;-59
2022/05/25 04:13:49;;;;;;;11.33;10.43;;;;;;;23.17;47.97;95060.25;6223319;27;103055;-59
2022/05/25 04:16:52;;;;;;;11.27;10.13;;;;;;;23.39;47.95;95063.97;6226517;28;103323;-60
2022/05/25 04:19:56;;;;;;;12.20;11.10;;;;;;;22.44;49.77;95067.09;6236690;28;102906;-59
2022/05/25 04:23:02;;;;;;;11.63;10.73;;;;;;;22.97;48.86;95064.31;6228020;27;103321;-59
2022/05/25 04:26:05;;;;;;;11.00;10.00;;;;;;;23.19;47.79;95068.00;6236719;28;102965;-59
2022/05/25 04:29:09;;;;;;;11.03;10.10;;;;;;;23.30;47.73;95062.03;6236513;28;102781;-59
2022/05/25 04:32:12;;;;;;;11.97;10.90;;;;;;;23.26;47.20;95063.75;6237940;28;102649;-60
2022/05/25 04:35:16;;;;;;;11.20;10.40;;;;;;;23.11;48.03;95058.06;6225927;27;102809;-59
2022/05/25 04:38:21;;;;;;;11.87;10.90;;;;;;;23.11;47.70;95066.88;6235646;28;102846;-59
2022/05/25 04:41:24;;;;;;;11.77;10.70;;;;;;;23.05;48.39;95060.09;6235165;28;102996;-59
2022/05/25 04:44:27;;;;;;;10.90;10.00;;;;;;;23.24;47.92;95062.50;6234297;28;103167;-59
2022/05/25 04:47:31;;;;;;;11.53;10.43;;;;;;;23.36;47.16;95065.38;6225686;27;103665;-59
2022/05/25 04:50:36;;;;;;;12.50;10.53;;;;;;;23.44;47.16;95069.91;6235214;28;103031;-58
2022/05/25 04:53:42;;;;;;;11.80;10.67;;;;;;;23.52;47.00;95065.66;6236717;28;103454;-59
2022/05/25 05:00:08;;;;;;;11.33;10.53;;;;;;;23.53;47.36;95072.59;6236498;28;103225;-59
2022/05/25 05:03:11;;;;;;;11.50;10.50;;;;;;;23.57;46.96;95073.53;6236951;28;103072;-59
2022/05/25 05:06:14;;;;;;;12.17;11.17;;;;;;;23.64;47.07;95076.53;6236033;28;102747;-63
2022/05/25 05:09:19;;;;;;;12.47;11.30;;;;;;;23.61;47.07;95077.16;6227149;27;103195;-59
2022/05/25 05:12:22;;;;;;;11.33;10.30;;;;;;;23.54;47.39;95064.28;6236689;28;103241;-59
2022/05/25 05:15:25;;;;;;;11.00;10.03;;;;;;;23.60;47.11;95075.59;6236246;28;103088;-58
2022/05/25 05:18:28;;;;;;;10.50;9.60;;;;;;;23.71;47.32;95078.75;6236895;28;103242;-59
2022/05/25 05:21:31;;;;;;;11.80;10.70;;;;;;;23.73;46.94;95080.00;6225602;28;103433;-59
2022/05/25 05:24:36;;;;;;;12.00;10.60;;;;;;;23.71;47.83;95084.88;6215595;28;102766;-60
2022/05/25 05:27:39;;;;;;;11.43;10.30;;;;;;;23.75;47.37;95091.16;6210417;28;103267;-61
2022/05/25 05:30:49;;;;;;;11.50;10.30;;;;;;;23.85;48.32;95098.81;6204460;28;102777;-58
2022/05/25 05:33:55;;;;;;;11.70;10.50;;;;;;;23.90;48.54;95088.00;6210882;28;102680;-59
2022/05/25 05:37:02;;;;;;;14.10;12.80;;;;;;;23.98;48.11;95093.63;6211516;28;102694;-58
2022/05/25 05:40:09;;;;;;;14.07;12.93;;;;;;;24.02;48.19;95098.06;6211421;28;102794;-58
2022/05/25 05:43:13;;;;;;;11.50;10.50;;;;;;;24.07;48.67;95100.59;6200646;28;102714;-59
2022/05/25 05:46:17;;;;;;;11.57;10.47;;;;;;;24.12;47.93;95115.66;6209866;28;102980;-59
2022/05/25 05:49:20;;;;;;;12.07;10.80;;;;;;;24.15;48.52;95110.47;6211373;28;102975;-59
2022/05/25 05:52:27;;;;;;;10.37;9.57;;;;;;;24.21;48.95;95119.13;6210943;28;102829;-58
2022/05/25 05:55:32;;;;;;;12.53;11.30;;;;;;;24.23;47.93;95119.59;6200940;28;102679;-59
2022/05/25 05:58:35;;;;;;;13.00;11.70;;;;;;;24.26;47.94;95126.19;6209810;28;102711;-58
2022/05/25 06:01:38;;;;;;;12.27;11.00;;;;;;;24.31;47.83;95128.69;6211155;28;103062;-58
2022/05/25 06:04:41;;;;;;;12.23;11.13;;;;;;;24.33;48.07;95123.81;6205117;28;102799;-59
2022/05/25 06:07:45;;;;;;;12.80;11.60;;;;;;;24.37;48.33;95125.56;6207003;28;102804;-58
2022/05/25 06:10:49;;;;;;;13.90;12.50;;;;;;;24.41;47.64;95123.81;6210420;28;102710;-59
2022/05/25 06:13:52;;;;;;;12.73;11.50;;;;;;;24.42;48.02;95120.03;6210837;28;102731;-59
2022/05/25 06:20:16;;;;;;;12.60;11.60;;;;;;;24.50;47.77;95124.56;6210454;28;103011;-58
2022/05/25 06:23:19;;;;;;;12.90;11.87;;;;;;;24.52;47.71;95126.13;6210574;28;102791;-58
2022/05/25 06:26:27;;;;;;;12.20;11.20;;;;;;;24.54;47.47;95119.38;6209859;28;102789;-58
2022/05/25 06:29:31;;;;;;;12.60;11.37;;;;;;;24.57;47.55;95124.09;6199416;28;102787;-58
2022/05/25 06:32:34;;;;;;;11.73;10.77;;;;;;;24.63;47.31;95127.38;6210173;28;102981;-58
2022/05/25 06:35:37;;;;;;;11.70;10.87;;;;;;;24.63;47.22;95122.78;6209801;28;103216;-59
2022/05/25 06:38:40;;;;;;;11.93;10.90;;;;;;;24.69;47.41;95126.09;6205255;28;104217;-58
2022/05/25 06:41:45;;;;;;;11.60;10.70;;;;;;;24.76;47.42;95126.41;6205072;28;102833;-59
2022/05/25 06:44:48;;;;;;;12.70;11.33;;;;;;;24.71;46.88;95118.56;6209703;28;102660;-58
2022/05/25 06:47:51;;;;;;;12.20;11.20;;;;;;;24.77;47.10;95128.75;6209398;28;103145;-59
2022/05/25 06:50:54;;;;;;;12.37;11.10;;;;;;;24.85;47.08;95131.72;6200247;28;102724;-60
2022/05/25 06:53:58;;;;;;;12.30;11.40;;;;;;;24.86;46.95;95128.72;6210331;28;102670;-59
2022/05/25 06:57:03;;;;;;;13.13;12.07;;;;;;;24.86;46.82;95130.59;6210612;28;102716;-59
2022/05/25 07:00:07;;;;;;;11.57;10.57;;;;;;;24.91;46.56;95133.91;6213736;28;103015;-59
2022/05/25 07:03:11;;;;;;;11.83;10.83;;;;;;;24.93;46.57;95122.88;6203735;28;104439;-59
2022/05/25 07:06:17;;;;;;;12.23;11.10;;;;;;;24.96;46.50;95131.03;6214011;28;102788;-59
2022/05/25 07:09:20;;;;;;;11.73;10.83;;;;;;;24.99;46.34;95132.28;6213996;28;102740;-59
2022/05/25 07:12:25;;;;;;;12.10;10.93;;;;;;;25.01;46.09;95132.75;6209476;28;104071;-59
2022/05/25 07:15:28;;;;;;;12.13;11.10;;;;;;;25.04;46.27;95142.84;6208848;28;102984;-59
2022/05/25 07:18:36;;;;;;;15.00;13.70;;;;;;;25.12;46.22;95144.69;6213802;28;102926;-59
2022/05/25 07:21:39;;;;;;;13.33;12.13;;;;;;;25.03;46.21;95158.13;6214414;28;103425;-59
2022/05/25 07:24:43;;;;;;;13.43;12.23;;;;;;;25.15;46.39;95146.72;6226295;28;104828;-59
2022/05/25 07:27:47;;;;;;;13.50;12.23;;;;;;;25.21;46.75;95137.41;6238501;28;102831;-59
2022/05/25 07:30:53;;;;;;;12.63;11.50;;;;;;;25.15;46.24;95145.94;6237789;28;103419;-59
2022/05/25 07:34:03;;;;;;;13.70;12.40;;;;;;;25.11;46.20;95150.38;6238086;28;102762;-59
2022/05/25 07:37:11;;;;;;;13.57;12.47;;;;;;;25.06;45.78;95144.09;6228236;27;103037;-60
2022/05/25 07:40:18;;;;;;;12.80;11.57;;;;;;;25.11;46.03;95137.75;6238078;28;102729;-58
2022/05/25 07:43:25;;;;;;;13.90;12.70;;;;;;;25.11;45.92;95143.13;6238159;28;102821;-59
2022/05/25 07:46:30;;;;;;;13.63;12.53;;;;;;;25.13;45.69;95142.78;6233766;28;103511;-59
2022/05/25 07:49:33;;;;;;;14.07;12.87;;;;;;;25.19;45.98;95139.59;6232174;28;103833;-59
2022/05/25 07:52:39;;;;;;;15.77;14.40;;;;;;;25.27;46.05;95138.00;6237959;28;102787;-60
2022/05/25 07:55:42;;;;;;;14.90;13.47;;;;;;;25.29;46.15;95128.53;6237563;28;102825;-59
2022/05/25 07:58:47;;;;;;;14.67;13.33;;;;;;;25.37;46.50;95125.06;6228984;27;103758;-60
2022/05/25 08:08:35;;;;;;;15.00;13.50;;;;;;;25.40;46.58;95128.97;6237285;27;102744;-59
2022/05/25 08:11:38;;;;;;;14.27;12.70;;;;;;;25.43;46.55;95127.53;6227383;28;102781;-59
2022/05/25 08:14:43;;;;;;;13.43;12.03;;;;;;;25.41;46.54;95130.53;6237991;28;102974;-59
2022/05/25 08:17:46;;;;;;;13.93;12.40;;;;;;;25.48;46.21;95138.06;6237484;28;102717;-59
2022/05/25 08:20:49;;;;;;;13.30;11.90;;;;;;;25.50;46.34;95133.16;6232938;27;103091;-59
2022/05/25 08:23:52;;;;;;;12.87;11.40;;;;;;;25.51;46.46;95116.75;6217043;28;102807;-59
2022/05/25 08:26:55;;;;;;;14.93;12.93;;;;;;;25.50;46.46;95117.84;6212301;28;102826;-60
2022/05/25 08:30:00;;;;;;;12.80;11.50;;;;;;;25.48;46.68;95117.41;6233315;28;103005;-58
2022/05/25 08:33:03;;;;;;;12.43;11.23;;;;;;;25.51;46.35;95115.97;6225982;27;103253;-61
2022/05/25 08:36:06;;;;;;;12.07;11.07;;;;;;;25.47;46.52;95117.72;6237489;28;103353;-59
2022/05/25 08:39:10;;;;;;;14.83;12.30;;;;;;;25.48;46.26;95128.13;6236917;28;103188;-59
2022/05/25 08:42:17;;;;;;;12.50;11.30;;;;;;;25.48;46.04;95144.19;6237497;28;102799;-61
2022/05/25 08:45:24;;;;;;;11.67;10.33;;;;;;;25.56;46.31;95131.88;6227950;27;102727;-60
2022/05/25 08:48:29;;;;;;;12.20;11.10;;;;;;;25.58;45.98;95135.78;6237126;28;102995;-60
2022/05/25 08:51:32;;;;;;;11.60;10.53;;;;;;;25.49;46.12;95135.03;6236536;28;102761;-60
2022/05/25 08:54:37;;;;;;;14.23;10.70;;;;;;;25.60;46.01;95132.78;6232155;28;102818;-60
2022/05/25 08:57:47;;;;;;;14.50;11.93;;;;;;;25.57;46.31;95128.88;6231540;27;103019;-59
2022/05/25 09:00:54;;;;;;;14.63;11.60;;;;;;;25.49;46.17;95144.97;6236983;28;102806;-59
2022/05/25 09:04:07;;;;;;;12.87;11.67;;;;;;;25.45;46.13;95136.81;6236566;28;102735;-60
2022/05/25 09:07:20;;;;;;;12.07;10.90;;;;;;;25.45;46.25;95128.00;6227778;28;102854;-59
2022/05/25 09:10:24;;;;;;;12.67;11.47;;;;;;;25.49;46.31;95129.69;6236303;28;102915;-59
2022/05/25 09:13:34;;;;;;;12.60;11.30;;;;;;;25.57;46.19;95144.94;6237110;28;102750;-60
2022/05/25 09:16:40;;;;;;;12.73;11.53;;;;;;;25.53;45.81;95135.97;6236938;28;102653;-60
2022/05/25 09:19:46;;;;;;;12.10;11.00;;;;;;;25.44;46.03;95129.09;6225601;28;102706;-60
2022/05/25 09:22:49;;;;;;;14.90;11.63;;;;;;;25.56;45.94;95137.22;6229322;28;102763;-60
2022/05/25 09:25:53;;;;;;;14.67;12.80;;;;;;;25.61;45.68;95132.44;6212041;28;102869;-60
2022/05/25 09:29:01;;;;;;;13.67;12.47;;;;;;;25.61;45.81;95140.50;6207133;28;102883;-63
2022/05/25 09:32:29;;;;;;;13.00;11.63;;;;;;;25.64;45.41;95139.84;6205945;28;102855;-60
2022/05/25 09:35:37;;;;;;;12.27;11.13;;;;;;;25.66;45.05;95148.34;6203261;28;102863;-60
2022/05/25 09:38:46;;;;;;;11.63;10.33;;;;;;;25.66;45.49;95145.66;6211381;28;102628;-59
2022/05/25 09:41:55;;;;;;;11.63;10.53;;;;;;;25.58;45.36;95141.16;6201386;28;102861;-59
2022/05/25 09:45:00;;;;;;;12.13;10.93;;;;;;;25.61;45.60;95135.13;6211620;28;103367;-60
2022/05/25 09:48:15;;;;;;;11.90;10.80;;;;;;;25.66;45.35;95134.16;6211005;28;102701;-60
2022/05/25 09:51:26;;;;;;;12.00;10.83;;;;;;;25.68;44.83;95132.69;6207161;28;103181;-60
2022/05/25 09:54:34;;;;;;;11.63;10.47;;;;;;;25.67;44.90;95128.47;6205820;28;102886;-61
2022/05/25 09:57:41;;;;;;;11.30;10.10;;;;;;;25.68;44.98;95124.66;6211428;28;103206;-60
2022/05/25 10:00:55;;;;;;;11.37;10.17;;;;;;;25.66;44.99;95121.53;6210829;28;103001;-59
2022/05/25 10:04:01;;;;;;;12.47;11.27;;;;;;;25.67;45.00;95114.28;6200670;28;103011;-59
2022/05/25 10:07:18;;;;;;;13.10;10.60;;;;;;;25.68;45.21;95100.53;6210661;28;102697;-59
2022/05/25 10:10:29;;;;;;;11.37;10.00;;;;;;;25.67;45.18;95100.88;6211103;28;103473;-59
2022/05/25 10:13:40;;;;;;;11.53;10.40;;;;;;;25.64;45.19;95094.28;6211015;28;102686;-60
2022/05/25 10:16:45;;;;;;;14.13;10.07;;;;;;;25.62;45.34;95093.03;6200932;28;102792;-59
2022/05/25 10:19:52;;;;;;;11.13;10.13;;;;;;;25.63;45.37;95100.75;6210645;28;102738;-59
2022/05/25 10:23:05;;;;;;;13.37;10.57;;;;;;;25.61;45.35;95096.81;6217499;28;102768;-59
2022/05/25 10:26:12;;;;;;;10.60;9.60;;;;;;;25.59;45.28;95099.84;6227219;28;103208;-60
2022/05/25 10:39:58;;;;;;;12.53;9.77;;;;;;;25.59;45.41;95089.13;6228965;28;102915;-60
2022/05/25 10:43:01;;;;;;;16.90;10.40;;;;;;;25.56;45.42;95089.78;6235480;28;102886;-60
2022/05/25 10:46:05;;;;;;;14.53;9.63;;;;;;;25.52;45.39;95090.72;6235412;28;103966;-59
2022/05/25 10:49:19;;;;;;;10.70;9.40;;;;;;;25.51;45.52;95078.44;6224987;28;102780;-60
2022/05/25 10:52:29;;;;;;;12.27;10.90;;;;;;;25.52;45.42;95070.06;6234639;28;102882;-60
2022/05/25 10:55:35;;;;;;;11.90;10.90;;;;;;;25.49;45.02;95056.56;6234992;28;102710;-60
2022/05/25 10:58:56;;;;;;;11.53;10.53;;;;;;;25.52;45.53;95056.69;6235310;28;102721;-59
2022/05/25 11:02:17;;;;;;;12.30;11.00;;;;;;;25.55;45.41;95057.94;6224981;28;103143;-59
2022/05/25 11:05:31;;;;;;;13.70;10.73;;;;;;;25.58;45.54;95055.38;6235065;28;102714;-60
2022/05/25 11:08:48;;;;;;;12.20;10.97;;;;;;;25.64;45.51;95064.78;6234212;28;102785;-59
2022/05/25 11:11:59;;;;;;;11.47;10.37;;;;;;;25.62;45.19;95044.78;6223555;28;102702;-59
2022/05/25 11:15:13;;;;;;;13.50;10.20;;;;;;;25.59;45.13;95046.25;6234190;28;103166;-59
2022/05/25 11:18:34;;;;;;;11.73;10.67;;;;;;;25.58;45.85;95044.66;6234142;28;102927;-59
2022/05/25 11:21:46;;;;;;;12.43;10.27;;;;;;;25.56;45.35;95038.84;6234128;28;102655;-59
2022/05/25 11:25:10;;;;;;;10.77;9.77;;;;;;;25.56;45.51;95036.19;6224522;28;102770;-59
2022/05/25 11:28:23;;;;;;;11.40;10.13;;;;;;;25.54;45.43;95026.88;6234432;28;102682;-59
2022/05/25 11:31:36;;;;;;;11.37;10.20;;;;;;;25.55;45.44;95018.53;6233506;28;102737;-59
2022/05/25 11:34:54;;;;;;;10.80;9.87;;;;;;;25.53;45.36;95026.09;6223051;28;103284;-59
2022/05/25 11:38:09;;;;;;;10.87;9.77;;;;;;;25.53;45.63;95030.66;6234613;28;102960;-59
2022/05/25 11:41:29;;;;;;;13.03;10.07;;;;;;;25.53;45.51;95026.09;6234344;28;102676;-59
2022/05/25 11:44:50;;;;;;;13.33;10.10;;;;;;;25.50;45.32;95024.06;6234549;28;102705;-60
2022/05/25 11:48:08;;;;;;;10.83;9.80;;;;;;;25.51;45.17;95009.56;6232394;28;102901;-60
2022/05/25 11:51:21;;;;;;;10.53;9.63;;;;;;;25.52;45.45;95013.03;6238121;28;102690;-60
2022/05/25 11:54:38;;;;;;;10.67;9.77;;;;;;;25.52;45.27;95011.13;6238512;28;102685;-59
2022/05/25 11:57:50;;;;;;;10.37;9.47;;;;;;;25.51;45.40;95008.78;6227541;27;102765;-59
2022/05/25 12:01:03;;;;;;;10.90;9.80;;;;;;;25.50;45.42;95001.84;6238029;28;103108;-59
2022/05/25 12:04:40;;;;;;;10.13;9.10;;;;;;;25.50;45.22;94993.81;6238038;28;103229;-59
2022/05/25 12:08:03;;;;;;;9.57;8.67;;;;;;;25.49;45.32;94994.94;6233325;28;104080;-60
2022/05/25 12:11:17;;;;;;;9.63;8.73;;;;;;;25.48;45.34;94978.06;6234329;28;103601;-59
2022/05/25 12:14:42;;;;;;;9.50;8.67;;;;;;;25.50;45.09;94978.53;6237122;28;102707;-59
2022/05/25 12:17:58;;;;;;;10.57;9.57;;;;;;;25.49;45.60;94966.22;6237249;28;102633;-59
2022/05/25 12:21:05;;;;;;;10.00;9.10;;;;;;;25.49;44.73;94971.59;6227208;28;102726;-60
2022/05/25 12:24:12;;;;;;;11.73;9.60;;;;;;;25.49;45.41;94970.81;6237559;28;103117;-59
2022/05/25 12:27:20;;;;;;;10.33;9.43;;;;;;;25.49;45.14;94962.78;6237202;28;102739;-60
2022/05/25 12:30:32;;;;;;;10.53;9.50;;;;;;;25.49;44.83;94960.88;6232423;27;103323;-59
2022/05/25 12:33:36;;;;;;;10.40;9.40;;;;;;;25.48;44.92;94962.00;6232104;27;103293;-59
2022/05/25 12:36:40;;;;;;;10.97;9.20;;;;;;;25.49;44.13;94960.88;6236983;28;102716;-59
2022/05/25 12:40:05;;;;;;;10.97;8.90;;;;;;;25.51;44.50;94957.88;6236862;28;102740;-59
2022/05/25 12:43:50;;;;;;;12.37;9.80;;;;;;;25.51;44.13;94963.22;6221281;27;102927;-59
2022/05/25 12:50:41;;;;;;;9.10;8.00;;;;;;;25.48;44.33;94940.56;6235814;28;102902;-59
2022/05/25 12:53:58;;;;;;;8.13;7.30;;;;;;;25.49;44.23;94935.97;6227507;28;104995;-59
2022/05/25 12:57:03;;;;;;;8.97;8.17;;;;;;;25.50;44.11;94935.66;6237108;27;102734;-59
2022/05/25 13:00:16;;;;;;;9.93;8.00;;;;;;;25.51;44.05;94939.88;6237050;28;103385;-59
2022/05/25 13:03:34;;;;;;;8.60;7.83;;;;;;;25.50;43.88;94934.88;6236873;28;102697;-59
2022/05/25 13:07:15;;;;;;;8.07;7.27;;;;;;;25.49;43.92;94928.72;6225923;28;102837;-57
2022/05/25 13:11:00;;;;;;;8.73;7.20;;;;;;;25.50;43.69;94937.53;6236973;28;102799;-57
2022/05/25 13:14:08;;;;;;;10.03;7.90;;;;;;;25.47;43.53;94941.66;6206581;28;102852;-57
2022/05/25 13:17:13;;;;;;;8.33;7.63;;;;;;;25.50;43.15;94946.38;6226161;27;103374;-58
2022/05/25 13:20:56;;;;;;;7.70;6.93;;;;;;;25.51;43.10;94931.06;6236283;28;102818;-58
2022/05/25 13:24:41;;;;;;;7.90;6.57;;;;;;;25.51;42.33;94929.16;6219128;28;102707;-58
2022/05/25 13:28:21;;;;;;;8.93;6.33;;;;;;;25.51;43.17;94931.06;6201786;27;104662;-59
2022/05/25 13:31:36;;;;;;;7.27;6.17;;;;;;;25.52;42.75;94927.28;6208932;28;102807;-58
2022/05/25 13:34:39;;;;;;;6.77;6.27;;;;;;;25.49;42.77;94920.69;6210111;28;102841;-58
2022/05/25 13:37:43;;;;;;;7.27;6.60;;;;;;;25.52;42.90;94925.38;6211260;28;102753;-58
2022/05/25 13:40:49;;;;;;;7.00;5.90;;;;;;;25.53;42.64;94924.25;6201339;28;103287;-58
2022/05/25 13:44:07;;;;;;;7.10;6.17;;;;;;;25.53;42.10;94928.84;6210609;28;102651;-59
2022/05/25 13:47:17;;;;;;;10.33;6.90;;;;;;;25.52;42.36;94925.38;6211334;28;103182;-58
2022/05/25 13:50:32;;;;;;;5.43;4.93;;;;;;;25.50;42.09;94921.47;6204025;27;104365;-59
2022/05/25 13:53:38;;;;;;;6.80;6.20;;;;;;;25.52;42.13;94917.34;6209762;28;102928;-58
2022/05/25 13:56:45;;;;;;;6.57;5.43;;;;;;;25.53;41.81;94926.94;6209747;28;102728;-58
2022/05/25 13:59:48;;;;;;;7.97;5.50;;;;;;;25.53;42.06;94924.25;6211026;28;102673;-58
2022/05/25 14:02:55;;;;;;;6.57;4.93;;;;;;;25.53;41.99;94918.91;6201326;28;102893;-58
2022/05/25 14:06:16;;;;;;;9.13;5.50;;;;;;;25.53;41.89;94924.25;6209944;28;102800;-58
2022/05/25 14:12:43;;;;;;;8.30;5.53;;;;;;;25.55;41.62;94905.19;6205434;28;102689;-58
2022/05/25 14:16:02;;;;;;;7.73;4.83;;;;;;;25.55;41.25;94916.69;6205296;28;103066;-58
2022/05/25 14:19:05;;;;;;;7.20;4.53;;;;;;;25.56;41.06;94917.47;6210481;28;103284;-57
2022/05/25 14:22:10;;;;;;;6.73;4.37;;;;;;;25.57;40.83;94919.03;6210512;28;102806;-58
2022/05/25 14:25:19;;;;;;;7.20;5.03;;;;;;;25.54;41.16;94915.13;6224676;27;102723;-59
2022/05/25 14:28:29;;;;;;;8.63;7.73;;;;;;;25.62;42.05;94913.47;6234333;28;102861;-61
2022/05/25 14:31:34;;;;;;;9.43;8.53;;;;;;;25.53;42.02;94918.91;6235368;28;102707;-61
2022/05/25 14:34:39;;;;;;;11.20;8.70;;;;;;;25.54;42.23;94923.19;6234162;28;102791;-61
2022/05/25 14:37:43;;;;;;;11.90;6.10;;;;;;;25.77;38.99;94912.84;6225247;28;103244;-58
2022/05/25 14:41:23;;;;;;;9.70;5.90;;;;;;;25.65;39.73;94907.44;6235696;28;103313;-60
2022/05/25 14:44:39;;;;;;;8.90;7.20;;;;;;;25.59;39.45;94922.97;6236108;28;103188;-59
2022/05/25 14:47:47;;;;;;;11.47;6.57;;;;;;;25.58;39.57;94912.56;6225647;28;104403;-59
2022/05/25 14:50:59;;;;;;;6.90;5.57;;;;;;;25.55;39.89;94916.69;6235488;28;102709;-59
2022/05/25 14:54:10;;;;;;;11.90;6.10;;;;;;;25.56;39.56;94910.22;6235006;28;103125;-58
2022/05/25 14:57:18;;;;;;;8.63;5.93;;;;;;;25.58;39.59;94905.31;6234328;28;102694;-59
2022/05/25 15:00:23;;;;;;;6.83;5.37;;;;;;;25.62;39.66;94908.09;6224979;28;102857;-60